Honomu, Hawaii
Current Conditions -  °F | °C
As of 3:53 AM on Thursday 23 Oct 2014 (Local Time) from PHTO Reporting Station
Overcast Overcast  
Wind Chill: 73°   Ceiling: 4700
Heat Index: 73°   Visibility: 10mi
Dew Point: 70°   Wind: 6mph
Humidity: 90%   Direction: 230°SW
Pressure: 29.99"   Gusts: NA
Location:  19.87°N, 155.1°W
Report Text: PHTO 231353Z 23005KT 10SM FEW026 BKN047 OVC060 23/21 A2999 RMK AO2 RAE13 SLP153 P0000 T02280211
Loading
Personal Weather Stations






























Interactive Weather Map
Tropical Storm Tracking
New forecast layout! Learn more

10-Day Weather Forecast

Advertisements
Track Severe Weather on mobile